createdAt,value
2022-10-30T00:00:44.541Z,100488.00
2022-10-30T00:03:18.694Z,100489.00
2022-10-30T00:05:53.718Z,100482.00
2022-10-30T00:08:30.502Z,100475.00
2022-10-30T00:11:13.945Z,100465.00
2022-10-30T00:13:52.744Z,100457.00
2022-10-30T00:16:25.718Z,100475.00
2022-10-30T00:18:58.779Z,100470.00
2022-10-30T00:21:31.530Z,100472.00
2022-10-30T00:24:04.413Z,100454.00
2022-10-30T00:26:37.622Z,100469.00
2022-10-30T00:29:10.518Z,100466.00
2022-10-30T00:31:43.911Z,100455.00
2022-10-30T00:34:17.110Z,100454.00
2022-10-30T00:36:50.379Z,100448.00
2022-10-30T00:39:23.545Z,100437.00
2022-10-30T00:41:56.321Z,100418.00
2022-10-30T00:44:57.734Z,100408.00
2022-10-30T00:47:38.302Z,100405.00
2022-10-30T00:53:07.324Z,100397.00
2022-10-30T00:55:58.132Z,100408.00
2022-10-30T00:58:32.656Z,100411.00
2022-10-30T01:01:07.503Z,100410.00
2022-10-30T01:03:42.327Z,100416.00
2022-10-30T01:06:17.152Z,100423.00
2022-10-30T01:08:55.202Z,100428.00
2022-10-30T01:11:25.195Z,100410.00
2022-10-30T01:14:01.266Z,100419.00
2022-10-30T01:17:01.040Z,100421.00
2022-10-30T01:19:59.840Z,100429.00
2022-10-30T01:22:56.248Z,100420.00
2022-10-30T01:25:43.176Z,100415.00
2022-10-30T01:28:43.809Z,100424.00
2022-10-30T01:31:24.880Z,100433.00
2022-10-30T01:34:19.623Z,100438.00
2022-10-30T01:37:00.151Z,100434.00
2022-10-30T01:39:35.414Z,100430.00
2022-10-30T01:42:16.778Z,100419.00
2022-10-30T01:44:49.785Z,100415.00
2022-10-30T01:47:33.603Z,100412.00
2022-10-30T01:50:21.077Z,100399.00
2022-10-30T01:53:18.931Z,100395.00
2022-10-30T01:56:03.290Z,100396.00
2022-10-30T01:58:47.113Z,100406.00
2022-10-30T02:01:36.570Z,100387.00
2022-10-30T02:04:10.950Z,100383.00
2022-10-30T02:06:44.211Z,100381.00
2022-10-30T02:09:18.817Z,100379.00
2022-10-30T02:11:53.339Z,100356.00
2022-10-30T02:14:35.217Z,100355.00
2022-10-30T02:17:14.664Z,100353.00
2022-10-30T02:19:51.842Z,100355.00
2022-10-30T02:22:25.030Z,100372.00
2022-10-30T02:24:59.349Z,100371.00
2022-10-30T02:27:32.691Z,100370.00
2022-10-30T02:30:05.654Z,100359.00
2022-10-30T02:32:48.910Z,100351.00
2022-10-30T02:35:22.343Z,100348.00
2022-10-30T02:37:56.667Z,100343.00
2022-10-30T02:40:29.822Z,100336.00
2022-10-30T02:43:02.896Z,100336.00
2022-10-30T02:45:41.853Z,100334.00
2022-10-30T02:48:14.320Z,100339.00
2022-10-30T02:50:47.190Z,100332.00
2022-10-30T02:53:22.290Z,100333.00
2022-10-30T02:55:55.018Z,100326.00
2022-10-30T02:58:27.950Z,100330.00
2022-10-30T03:01:01.086Z,100330.00
2022-10-30T03:03:33.953Z,100324.00
2022-10-30T03:06:08.861Z,100331.00
2022-10-30T03:08:42.362Z,100310.00
2022-10-30T03:11:17.163Z,100318.00
2022-10-30T03:13:51.401Z,100321.00
2022-10-30T03:16:27.151Z,100320.00
2022-10-30T03:19:04.473Z,100303.00
2022-10-30T03:21:48.173Z,100290.00
2022-10-30T03:24:21.467Z,100280.00
2022-10-30T03:26:54.229Z,100271.00
2022-10-30T03:29:27.088Z,100262.00
2022-10-30T03:32:00.135Z,100267.00
2022-10-30T03:34:35.104Z,100248.00
2022-10-30T03:37:07.570Z,100247.00
2022-10-30T03:39:40.493Z,100247.00
2022-10-30T03:42:13.759Z,100247.00
2022-10-30T03:44:46.806Z,100255.00
2022-10-30T03:47:19.885Z,100253.00
2022-10-30T03:49:52.810Z,100256.00
2022-10-30T03:52:25.870Z,100261.00
2022-10-30T03:54:58.588Z,100260.00
2022-10-30T03:57:31.620Z,100278.00
2022-10-30T04:00:04.658Z,100274.00
2022-10-30T04:02:37.566Z,100268.00
2022-10-30T04:05:10.830Z,100261.00
2022-10-30T04:07:43.743Z,100254.00
2022-10-30T04:10:21.072Z,100250.00
2022-10-30T04:12:51.800Z,100246.00
2022-10-30T04:15:24.839Z,100251.00
2022-10-30T04:17:58.378Z,100257.00
2022-10-30T04:20:31.588Z,100274.00
2022-10-30T04:23:09.512Z,100267.00
2022-10-30T04:25:42.440Z,100261.00
2022-10-30T04:28:15.839Z,100261.00
2022-10-30T04:30:49.335Z,100255.00
2022-10-30T04:33:22.532Z,100247.00
2022-10-30T04:35:56.731Z,100251.00
2022-10-30T04:38:29.814Z,100249.00
2022-10-30T04:41:02.716Z,100252.00
2022-10-30T04:43:35.672Z,100256.00
2022-10-30T04:46:11.689Z,100256.00
2022-10-30T04:48:44.620Z,100247.00
2022-10-30T04:51:17.915Z,100246.00
2022-10-30T04:53:51.028Z,100245.00
2022-10-30T04:56:24.516Z,100227.00
2022-10-30T04:58:57.419Z,100233.00
2022-10-30T05:01:30.455Z,100242.00
2022-10-30T05:04:03.880Z,100228.00
2022-10-30T05:06:36.814Z,100222.00
2022-10-30T05:09:09.758Z,100223.00
2022-10-30T05:11:49.037Z,100237.00
2022-10-30T05:14:22.084Z,100252.00
2022-10-30T05:16:55.102Z,100263.00
2022-10-30T05:19:28.557Z,100274.00
2022-10-30T05:22:01.604Z,100264.00
2022-10-30T05:24:34.638Z,100261.00
2022-10-30T05:27:07.632Z,100261.00
2022-10-30T05:29:40.714Z,100263.00
2022-10-30T05:34:47.144Z,100228.00
2022-10-30T05:37:20.156Z,100233.00
2022-10-30T05:39:53.239Z,100246.00
2022-10-30T05:42:26.208Z,100270.00
2022-10-30T05:45:01.698Z,100295.00
2022-10-30T05:47:33.346Z,100297.00
2022-10-30T05:50:06.368Z,100288.00
2022-10-30T05:52:39.269Z,100307.00
2022-10-30T05:55:12.748Z,100318.00
2022-10-30T05:57:45.760Z,100318.00
2022-10-30T06:00:20.284Z,100320.00
2022-10-30T06:02:53.416Z,100304.00
2022-10-30T06:05:26.587Z,100284.00
2022-10-30T06:08:02.468Z,100291.00
2022-10-30T06:10:35.418Z,100278.00
2022-10-30T06:13:10.323Z,100275.00
2022-10-30T06:15:43.662Z,100290.00
2022-10-30T06:18:16.725Z,100273.00
2022-10-30T06:20:49.679Z,100269.00
2022-10-30T06:23:22.793Z,100286.00
2022-10-30T06:25:55.643Z,100314.00
2022-10-30T06:28:28.718Z,100317.00
2022-10-30T06:31:06.013Z,100325.00
2022-10-30T06:33:39.108Z,100318.00
2022-10-30T06:36:12.983Z,100313.00
2022-10-30T06:38:45.872Z,100314.00
2022-10-30T06:41:18.872Z,100338.00
2022-10-30T06:43:51.970Z,100339.00
2022-10-30T06:46:27.490Z,100340.00
2022-10-30T06:49:03.780Z,100343.00
2022-10-30T06:51:37.039Z,100352.00
2022-10-30T06:54:11.575Z,100359.00
2022-10-30T06:56:44.613Z,100353.00
2022-10-30T06:59:18.953Z,100351.00
2022-10-30T07:01:59.211Z,100366.00
2022-10-30T07:04:30.056Z,100371.00
2022-10-30T07:07:04.465Z,100372.00
2022-10-30T07:09:37.509Z,100367.00
2022-10-30T07:12:11.507Z,100385.00
2022-10-30T07:14:47.326Z,100390.00
2022-10-30T07:17:20.184Z,100395.00
2022-10-30T07:19:53.032Z,100394.00
2022-10-30T07:22:25.987Z,100396.00
2022-10-30T07:24:59.004Z,100395.00
2022-10-30T07:27:34.684Z,100394.00
2022-10-30T07:30:07.867Z,100400.00
2022-10-30T07:32:40.849Z,100408.00
2022-10-30T07:35:14.951Z,100407.00
2022-10-30T07:37:48.566Z,100409.00
2022-10-30T07:40:26.203Z,100406.00
2022-10-30T07:43:02.968Z,100411.00
2022-10-30T07:45:36.448Z,100413.00
2022-10-30T07:48:09.850Z,100408.00
2022-10-30T07:50:42.764Z,100413.00
2022-10-30T07:53:15.769Z,100423.00
2022-10-30T07:55:48.802Z,100434.00
2022-10-30T07:58:21.746Z,100432.00
2022-10-30T08:00:56.168Z,100440.00
2022-10-30T08:03:29.168Z,100443.00
2022-10-30T08:06:02.398Z,100445.00
2022-10-30T08:08:37.941Z,100441.00
2022-10-30T08:11:09.595Z,100450.00
2022-10-30T08:13:42.841Z,100443.00
2022-10-30T08:16:16.018Z,100461.00
2022-10-30T08:18:53.291Z,100459.00
2022-10-30T08:21:26.334Z,100466.00
2022-10-30T08:23:59.169Z,100465.00
2022-10-30T08:26:32.184Z,100470.00
2022-10-30T08:29:05.214Z,100476.00
2022-10-30T08:31:38.201Z,100480.00
2022-10-30T08:34:11.372Z,100479.00
2022-10-30T08:36:46.852Z,100488.00
2022-10-30T08:39:18.766Z,100482.00
2022-10-30T08:41:51.512Z,100483.00
2022-10-30T08:44:25.083Z,100490.00
2022-10-30T08:46:58.003Z,100478.00
2022-10-30T08:49:32.001Z,100474.00
2022-10-30T08:52:04.893Z,100478.00
2022-10-30T08:54:37.697Z,100474.00
2022-10-30T08:57:10.617Z,100476.00
2022-10-30T08:59:43.598Z,100474.00
2022-10-30T09:02:16.688Z,100477.00
2022-10-30T09:04:49.719Z,100476.00
2022-10-30T09:07:22.532Z,100474.00
2022-10-30T09:09:59.766Z,100478.00
2022-10-30T09:12:32.778Z,100476.00
2022-10-30T09:15:05.751Z,100483.00
2022-10-30T09:17:38.742Z,100485.00
2022-10-30T09:20:12.280Z,100491.00
2022-10-30T09:22:48.229Z,100496.00
2022-10-30T09:25:22.582Z,100498.00
2022-10-30T09:27:55.609Z,100504.00
2022-10-30T09:30:28.768Z,100508.00
2022-10-30T09:33:05.809Z,100511.00
2022-10-30T09:35:38.948Z,100505.00
2022-10-30T09:38:12.531Z,100511.00
2022-10-30T09:41:21.217Z,100512.00
2022-10-30T09:44:11.433Z,100516.00
2022-10-30T09:47:02.837Z,100523.00
2022-10-30T09:49:43.930Z,100518.00
2022-10-30T09:52:39.946Z,100525.00
2022-10-30T09:55:36.292Z,100515.00
2022-10-30T09:58:41.377Z,100523.00
2022-10-30T10:01:22.805Z,100519.00
2022-10-30T10:04:10.302Z,100525.00
2022-10-30T10:06:44.827Z,100514.00
2022-10-30T10:09:25.901Z,100519.00
2022-10-30T10:12:01.355Z,100521.00
2022-10-30T10:14:36.000Z,100512.00
2022-10-30T10:17:10.656Z,100513.00
2022-10-30T10:20:01.270Z,100510.00
2022-10-30T10:22:38.684Z,100516.00
2022-10-30T10:25:13.752Z,100512.00
2022-10-30T10:27:54.994Z,100508.00
2022-10-30T10:30:29.512Z,100514.00
2022-10-30T10:33:31.320Z,100519.00
2022-10-30T10:36:19.145Z,100505.00
2022-10-30T10:39:22.653Z,100502.00
2022-10-30T10:42:06.989Z,100508.00
2022-10-30T10:44:50.972Z,100505.00
2022-10-30T10:47:25.676Z,100515.00
2022-10-30T10:50:21.656Z,100506.00
2022-10-30T10:53:03.150Z,100512.00
2022-10-30T10:55:41.320Z,100503.00
2022-10-30T10:58:31.239Z,100497.00
2022-10-30T11:01:04.191Z,100497.00
2022-10-30T11:03:57.100Z,100498.00
2022-10-30T11:06:37.960Z,100508.00
2022-10-30T11:09:25.086Z,100503.00
2022-10-30T11:11:58.646Z,100506.00
2022-10-30T11:14:32.781Z,100504.00
2022-10-30T11:17:22.565Z,100516.00
2022-10-30T11:19:57.638Z,100522.00
2022-10-30T11:22:41.578Z,100531.00
2022-10-30T11:25:31.162Z,100528.00
2022-10-30T11:28:07.709Z,100529.00
2022-10-30T11:30:40.744Z,100525.00
2022-10-30T11:33:31.927Z,100518.00
2022-10-30T11:36:09.322Z,100524.00
2022-10-30T11:38:40.983Z,100518.00
2022-10-30T11:41:15.130Z,100523.00
2022-10-30T11:43:50.949Z,100517.00
2022-10-30T11:46:25.547Z,100518.00
2022-10-30T11:48:58.618Z,100514.00
2022-10-30T11:51:39.393Z,100525.00
2022-10-30T11:54:13.835Z,100526.00
2022-10-30T11:56:48.661Z,100519.00
2022-10-30T11:59:23.528Z,100509.00
2022-10-30T12:02:25.781Z,100526.00
2022-10-30T12:04:59.320Z,100528.00
2022-10-30T12:07:39.027Z,100520.00
2022-10-30T12:10:14.172Z,100519.00
2022-10-30T12:12:47.475Z,100514.00
2022-10-30T12:15:22.494Z,100523.00
2022-10-30T12:17:59.800Z,100521.00
2022-10-30T12:20:32.856Z,100518.00
2022-10-30T12:23:10.761Z,100514.00
2022-10-30T12:25:44.817Z,100508.00
2022-10-30T12:28:29.109Z,100510.00
2022-10-30T12:31:19.601Z,100496.00
2022-10-30T12:36:58.650Z,100493.00
2022-10-30T12:39:48.154Z,100491.00
2022-10-30T12:42:23.748Z,100499.00
2022-10-30T12:45:07.417Z,100489.00
2022-10-30T12:47:48.278Z,100489.00
2022-10-30T12:50:26.365Z,100476.00
2022-10-30T12:53:13.748Z,100476.00
2022-10-30T12:55:51.639Z,100475.00
2022-10-30T12:58:45.159Z,100474.00
2022-10-30T13:01:39.655Z,100469.00
2022-10-30T13:04:26.248Z,100467.00
2022-10-30T13:07:01.022Z,100467.00
2022-10-30T13:09:41.465Z,100466.00
2022-10-30T13:12:16.457Z,100468.00
2022-10-30T13:14:51.040Z,100465.00
2022-10-30T13:17:23.938Z,100467.00
2022-10-30T13:19:57.200Z,100469.00
2022-10-30T13:22:44.376Z,100459.00
2022-10-30T13:25:37.684Z,100459.00
2022-10-30T13:28:12.453Z,100473.00
2022-10-30T13:30:47.066Z,100472.00
2022-10-30T13:33:21.693Z,100476.00
2022-10-30T13:36:13.130Z,100479.00
2022-10-30T13:38:51.027Z,100476.00
2022-10-30T13:41:41.004Z,100475.00
2022-10-30T13:44:33.946Z,100474.00
2022-10-30T13:47:17.454Z,100476.00
2022-10-30T13:50:00.822Z,100482.00
2022-10-30T13:52:35.250Z,100474.00
2022-10-30T13:55:13.165Z,100472.00
2022-10-30T13:58:21.545Z,100467.00
2022-10-30T14:01:05.026Z,100464.00
2022-10-30T14:03:48.721Z,100469.00
2022-10-30T14:06:45.091Z,100467.00
2022-10-30T14:09:42.231Z,100466.00
2022-10-30T14:12:51.666Z,100467.00
2022-10-30T14:15:36.025Z,100470.00
2022-10-30T14:18:20.263Z,100472.00
2022-10-30T14:20:57.110Z,100476.00
2022-10-30T14:23:40.584Z,100474.00
2022-10-30T14:26:17.661Z,100473.00
2022-10-30T14:28:52.398Z,100473.00
2022-10-30T14:31:27.331Z,100469.00
2022-10-30T14:34:03.338Z,100476.00
2022-10-30T14:36:44.362Z,100469.00
2022-10-30T14:39:19.585Z,100463.00
2022-10-30T14:42:06.105Z,100464.00
2022-10-30T14:44:53.274Z,100460.00
2022-10-30T14:47:44.835Z,100467.00
2022-10-30T14:50:19.543Z,100474.00
2022-10-30T14:52:54.864Z,100478.00
2022-10-30T14:56:03.556Z,100479.00
2022-10-30T14:58:41.135Z,100479.00
2022-10-30T15:01:31.263Z,100483.00
2022-10-30T15:04:06.545Z,100482.00
2022-10-30T15:06:59.026Z,100475.00
2022-10-30T15:09:34.035Z,100482.00
2022-10-30T15:12:25.275Z,100477.00
2022-10-30T15:15:02.550Z,100478.00
2022-10-30T15:17:46.696Z,100476.00
2022-10-30T15:20:21.519Z,100472.00
2022-10-30T15:22:57.087Z,100471.00
2022-10-30T15:25:32.196Z,100468.00
2022-10-30T15:28:05.204Z,100467.00
2022-10-30T15:30:40.564Z,100459.00
2022-10-30T15:33:14.090Z,100468.00
2022-10-30T15:35:49.206Z,100463.00
2022-10-30T15:38:22.256Z,100469.00
2022-10-30T15:40:56.103Z,100457.00
2022-10-30T15:43:33.564Z,100465.00
2022-10-30T15:46:08.876Z,100448.00
2022-10-30T15:48:44.358Z,100457.00
2022-10-30T15:51:27.672Z,100459.00
2022-10-30T15:54:05.369Z,100462.00
2022-10-30T15:57:15.821Z,100449.00
2022-10-30T15:59:28.136Z,100449.00
2022-10-30T16:02:02.088Z,100449.00
2022-10-30T16:04:40.354Z,100444.00
2022-10-30T16:07:29.932Z,100448.00
2022-10-30T16:10:04.755Z,100442.00
2022-10-30T16:12:39.170Z,100439.00
2022-10-30T16:15:14.082Z,100439.00
2022-10-30T16:17:46.951Z,100443.00
2022-10-30T16:20:21.012Z,100450.00
2022-10-30T16:22:53.949Z,100455.00
2022-10-30T16:25:26.783Z,100455.00
2022-10-30T16:28:00.136Z,100458.00
2022-10-30T16:30:34.005Z,100452.00
2022-10-30T16:33:08.128Z,100458.00
2022-10-30T16:35:47.441Z,100462.00
2022-10-30T16:38:18.806Z,100466.00
2022-10-30T16:40:52.302Z,100476.00
2022-10-30T16:43:32.803Z,100472.00
2022-10-30T16:46:11.138Z,100472.00
2022-10-30T16:48:48.434Z,100474.00
2022-10-30T16:51:23.388Z,100469.00
2022-10-30T16:53:56.734Z,100474.00
2022-10-30T16:56:36.577Z,100477.00
2022-10-30T16:59:20.662Z,100479.00
2022-10-30T17:01:58.537Z,100471.00
2022-10-30T17:04:32.138Z,100478.00
2022-10-30T17:07:27.733Z,100481.00
2022-10-30T17:10:01.266Z,100489.00
2022-10-30T17:12:34.160Z,100501.00
2022-10-30T17:15:21.154Z,100500.00
2022-10-30T17:17:56.058Z,100511.00
2022-10-30T17:20:32.322Z,100509.00
2022-10-30T17:23:22.622Z,100509.00
2022-10-30T17:25:55.481Z,100523.00
2022-10-30T17:28:33.129Z,100517.00
2022-10-30T17:31:26.612Z,100519.00
2022-10-30T17:34:10.861Z,100524.00
2022-10-30T17:36:44.073Z,100523.00
2022-10-30T17:39:16.975Z,100524.00
2022-10-30T17:41:49.770Z,100526.00
2022-10-30T17:44:24.520Z,100525.00
2022-10-30T17:46:57.427Z,100537.00
2022-10-30T17:49:32.511Z,100542.00
2022-10-30T17:52:06.014Z,100539.00
2022-10-30T17:54:39.280Z,100543.00
2022-10-30T17:57:17.154Z,100549.00
2022-10-30T17:59:49.993Z,100550.00
2022-10-30T18:02:25.324Z,100562.00
2022-10-30T18:04:58.611Z,100561.00
2022-10-30T18:07:31.699Z,100566.00
2022-10-30T18:10:04.630Z,100563.00
2022-10-30T18:12:37.669Z,100562.00
2022-10-30T18:15:18.176Z,100559.00
2022-10-30T18:17:51.095Z,100554.00
2022-10-30T18:20:26.570Z,100563.00
2022-10-30T18:22:58.683Z,100560.00
2022-10-30T18:25:37.302Z,100563.00
2022-10-30T18:28:10.376Z,100574.00
2022-10-30T18:30:43.513Z,100576.00
2022-10-30T18:33:16.550Z,100573.00
2022-10-30T18:35:50.893Z,100591.00
2022-10-30T18:38:23.926Z,100571.00
2022-10-30T18:40:56.695Z,100569.00
2022-10-30T18:43:29.345Z,100574.00
2022-10-30T18:46:02.396Z,100566.00
2022-10-30T18:48:35.392Z,100565.00
2022-10-30T18:51:12.839Z,100574.00
2022-10-30T18:53:46.996Z,100571.00
2022-10-30T18:56:19.893Z,100583.00
2022-10-30T18:58:56.431Z,100581.00
2022-10-30T19:01:26.728Z,100589.00
2022-10-30T19:04:00.888Z,100596.00
2022-10-30T19:06:35.342Z,100603.00
2022-10-30T19:09:08.324Z,100610.00
2022-10-30T19:11:44.328Z,100613.00
2022-10-30T19:14:17.823Z,100606.00
2022-10-30T19:16:50.566Z,100606.00
2022-10-30T19:19:23.473Z,100611.00
2022-10-30T19:21:56.474Z,100624.00
2022-10-30T19:24:47.880Z,100630.00
2022-10-30T19:27:12.972Z,100630.00
2022-10-30T19:29:45.904Z,100630.00
2022-10-30T19:32:18.941Z,100626.00
2022-10-30T19:34:51.993Z,100619.00
2022-10-30T19:37:24.852Z,100621.00
2022-10-30T19:39:57.719Z,100617.00
2022-10-30T19:42:30.726Z,100615.00
2022-10-30T19:45:03.716Z,100617.00
2022-10-30T19:47:37.204Z,100629.00
2022-10-30T19:50:24.129Z,100618.00
2022-10-30T19:52:58.221Z,100628.00
2022-10-30T19:55:32.598Z,100634.00
2022-10-30T19:58:06.861Z,100639.00
2022-10-30T20:00:41.583Z,100642.00
2022-10-30T20:03:21.103Z,100638.00
2022-10-30T20:05:54.767Z,100639.00
2022-10-30T20:08:28.756Z,100636.00
2022-10-30T20:11:03.732Z,100646.00
2022-10-30T20:13:36.843Z,100641.00
2022-10-30T20:16:09.989Z,100642.00
2022-10-30T20:18:47.090Z,100640.00
2022-10-30T20:21:24.276Z,100653.00
2022-10-30T20:23:57.305Z,100640.00
2022-10-30T20:26:35.697Z,100647.00
2022-10-30T20:29:08.607Z,100643.00
2022-10-30T20:31:41.637Z,100642.00
2022-10-30T20:34:14.904Z,100642.00
2022-10-30T20:36:47.722Z,100640.00
2022-10-30T20:39:21.272Z,100652.00
2022-10-30T20:41:54.185Z,100651.00
2022-10-30T20:44:28.471Z,100649.00
2022-10-30T20:47:01.574Z,100650.00
2022-10-30T20:49:35.292Z,100658.00
2022-10-30T20:52:10.404Z,100652.00
2022-10-30T20:54:43.365Z,100661.00
2022-10-30T20:57:16.427Z,100658.00
2022-10-30T20:59:49.388Z,100668.00
2022-10-30T21:02:22.424Z,100666.00
2022-10-30T21:04:55.495Z,100682.00
2022-10-30T21:07:28.731Z,100678.00
2022-10-30T21:10:01.738Z,100681.00
2022-10-30T21:12:34.627Z,100681.00
2022-10-30T21:15:07.640Z,100691.00
2022-10-30T21:17:40.663Z,100677.00
2022-10-30T21:20:14.367Z,100670.00
2022-10-30T21:22:47.330Z,100670.00
2022-10-30T21:25:20.121Z,100669.00
2022-10-30T21:27:53.187Z,100678.00
2022-10-30T21:30:26.116Z,100662.00
2022-10-30T21:32:59.601Z,100653.00
2022-10-30T21:35:32.733Z,100654.00
2022-10-30T21:38:06.155Z,100658.00
2022-10-30T21:40:39.243Z,100663.00
2022-10-30T21:43:12.340Z,100658.00
2022-10-30T21:45:45.376Z,100653.00
2022-10-30T21:48:18.259Z,100652.00
2022-10-30T21:50:52.162Z,100642.00
2022-10-30T21:53:25.229Z,100640.00
2022-10-30T21:55:58.160Z,100649.00
2022-10-30T21:58:31.136Z,100654.00
2022-10-30T22:01:04.521Z,100658.00
2022-10-30T22:03:37.880Z,100659.00
2022-10-30T22:06:11.768Z,100655.00
2022-10-30T22:08:45.285Z,100656.00
2022-10-30T22:11:18.776Z,100659.00
2022-10-30T22:13:51.901Z,100649.00
2022-10-30T22:16:24.803Z,100650.00
2022-10-30T22:18:57.792Z,100654.00
2022-10-30T22:21:31.608Z,100655.00
2022-10-30T22:24:05.356Z,100655.00
2022-10-30T22:26:38.530Z,100653.00
2022-10-30T22:29:11.383Z,100654.00
2022-10-30T22:31:44.379Z,100664.00
2022-10-30T22:34:17.351Z,100658.00
2022-10-30T22:36:50.574Z,100662.00
2022-10-30T22:39:23.672Z,100622.00
2022-10-30T22:41:56.405Z,100637.00
2022-10-30T22:44:30.501Z,100651.00
2022-10-30T22:47:03.510Z,100648.00
2022-10-30T22:49:36.397Z,100638.00
2022-10-30T22:52:09.730Z,100636.00
2022-10-30T22:54:43.093Z,100641.00
2022-10-30T22:57:20.461Z,100630.00
2022-10-30T22:59:53.352Z,100629.00
2022-10-30T23:02:26.294Z,100624.00
2022-10-30T23:04:59.341Z,100626.00
2022-10-30T23:07:32.297Z,100620.00
2022-10-30T23:10:05.237Z,100618.00
2022-10-30T23:12:38.027Z,100623.00
2022-10-30T23:15:12.091Z,100633.00
2022-10-30T23:17:45.200Z,100633.00
2022-10-30T23:20:18.026Z,100637.00
2022-10-30T23:22:51.076Z,100627.00
2022-10-30T23:25:24.028Z,100635.00
2022-10-30T23:27:57.982Z,100649.00
2022-10-30T23:30:31.192Z,100640.00
2022-10-30T23:33:03.995Z,100637.00
2022-10-30T23:35:36.925Z,100644.00
2022-10-30T23:38:09.987Z,100641.00
2022-10-30T23:40:42.771Z,100635.00
2022-10-30T23:45:48.708Z,100646.00
2022-10-30T23:48:21.779Z,100655.00
2022-10-30T23:50:54.694Z,100652.00
2022-10-30T23:53:28.495Z,100656.00
2022-10-30T23:56:01.677Z,100654.00
2022-10-30T23:58:34.738Z,100647.00
